sensor_id;sensor_type;location;lat;lon;timestamp;temperature;humidity
7658;DHT22;8462;53.156;8.220;2024-01-15T00:01:09;3.90;99.90
7658;DHT22;8462;53.156;8.220;2024-01-15T00:03:36;4.00;99.90
7658;DHT22;8462;53.156;8.220;2024-01-15T00:06:05;4.00;99.90
7658;DHT22;8462;53.156;8.220;2024-01-15T00:08:32;4.10;99.90
7658;DHT22;8462;53.156;8.220;2024-01-15T00:10:59;4.10;99.90
7658;DHT22;8462;53.156;8.220;2024-01-15T00:13:26;4.20;99.90
7658;DHT22;8462;53.156;8.220;2024-01-15T00:15:53;4.20;99.90
7658;DHT22;8462;53.156;8.220;2024-01-15T00:18:21;4.20;99.90
7658;DHT22;8462;53.156;8.220;2024-01-15T00:20:48;4.20;99.90
7658;DHT22;8462;53.156;8.220;2024-01-15T00:23:17;4.20;99.90
7658;DHT22;8462;53.156;8.220;2024-01-15T00:25:44;4.20;99.90
7658;DHT22;8462;53.156;8.220;2024-01-15T00:28:15;4.10;99.90
7658;DHT22;8462;53.156;8.220;2024-01-15T00:30:42;4.10;99.90
7658;DHT22;8462;53.156;8.220;2024-01-15T00:33:09;4.10;99.90
7658;DHT22;8462;53.156;8.220;2024-01-15T00:35:37;4.10;99.90
7658;DHT22;8462;53.156;8.220;2024-01-15T00:38:04;4.00;99.90
7658;DHT22;8462;53.156;8.220;2024-01-15T00:40:33;4.10;99.90
7658;DHT22;8462;53.156;8.220;2024-01-15T00:43:00;4.10;99.90
7658;DHT22;8462;53.156;8.220;2024-01-15T00:45:27;4.10;99.90
7658;DHT22;8462;53.156;8.220;2024-01-15T00:47:54;4.10;99.90
7658;DHT22;8462;53.156;8.220;2024-01-15T00:50:22;4.10;99.90
7658;DHT22;8462;53.156;8.220;2024-01-15T00:52:52;4.10;99.90
7658;DHT22;8462;53.156;8.220;2024-01-15T00:55:19;4.10;99.90
7658;DHT22;8462;53.156;8.220;2024-01-15T00:57:47;4.10;99.90
7658;DHT22;8462;53.156;8.220;2024-01-15T01:00:16;4.20;99.90
7658;DHT22;8462;53.156;8.220;2024-01-15T01:02:43;4.20;99.90
7658;DHT22;8462;53.156;8.220;2024-01-15T01:05:10;4.20;99.90
7658;DHT22;8462;53.156;8.220;2024-01-15T01:07:37;4.10;99.90
7658;DHT22;8462;53.156;8.220;2024-01-15T01:10:05;4.10;99.90
7658;DHT22;8462;53.156;8.220;2024-01-15T01:12:32;4.10;99.90
7658;DHT22;8462;53.156;8.220;2024-01-15T01:15:00;4.10;99.90
7658;DHT22;8462;53.156;8.220;2024-01-15T01:17:28;4.10;99.90
7658;DHT22;8462;53.156;8.220;2024-01-15T01:19:56;4.10;99.90
7658;DHT22;8462;53.156;8.220;2024-01-15T01:22:23;4.10;99.90
7658;DHT22;8462;53.156;8.220;2024-01-15T01:24:50;4.20;99.90
7658;DHT22;8462;53.156;8.220;2024-01-15T01:27:17;4.20;99.90
7658;DHT22;8462;53.156;8.220;2024-01-15T01:29:44;4.20;99.90
7658;DHT22;8462;53.156;8.220;2024-01-15T01:32:13;4.20;99.90
7658;DHT22;8462;53.156;8.220;2024-01-15T01:34:41;4.20;99.90
7658;DHT22;8462;53.156;8.220;2024-01-15T01:37:08;4.20;99.90
7658;DHT22;8462;53.156;8.220;2024-01-15T01:39:35;4.20;99.90
7658;DHT22;8462;53.156;8.220;2024-01-15T01:42:03;4.20;99.90
7658;DHT22;8462;53.156;8.220;2024-01-15T01:44:30;4.20;99.90
7658;DHT22;8462;53.156;8.220;2024-01-15T01:46:57;4.20;99.90
7658;DHT22;8462;53.156;8.220;2024-01-15T01:49:27;4.20;99.90
7658;DHT22;8462;53.156;8.220;2024-01-15T01:51:55;4.20;99.90
7658;DHT22;8462;53.156;8.220;2024-01-15T01:54:24;4.20;99.90
7658;DHT22;8462;53.156;8.220;2024-01-15T01:56:52;4.20;99.90
7658;DHT22;8462;53.156;8.220;2024-01-15T01:59:19;4.20;99.90
7658;DHT22;8462;53.156;8.220;2024-01-15T02:01:48;4.20;99.90
7658;DHT22;8462;53.156;8.220;2024-01-15T02:04:17;4.20;99.90
7658;DHT22;8462;53.156;8.220;2024-01-15T02:06:45;4.30;99.90
7658;DHT22;8462;53.156;8.220;2024-01-15T02:09:12;4.30;99.90
7658;DHT22;8462;53.156;8.220;2024-01-15T02:11:40;4.30;99.90
7658;DHT22;8462;53.156;8.220;2024-01-15T02:14:08;4.20;99.90
7658;DHT22;8462;53.156;8.220;2024-01-15T02:16:36;4.20;99.90
7658;DHT22;8462;53.156;8.220;2024-01-15T02:19:03;4.20;99.90
7658;DHT22;8462;53.156;8.220;2024-01-15T02:21:31;4.10;99.90
7658;DHT22;8462;53.156;8.220;2024-01-15T02:23:59;4.10;99.90
7658;DHT22;8462;53.156;8.220;2024-01-15T02:26:27;4.10;99.90
7658;DHT22;8462;53.156;8.220;2024-01-15T02:28:55;4.00;99.90
7658;DHT22;8462;53.156;8.220;2024-01-15T02:31:22;4.00;99.90
7658;DHT22;8462;53.156;8.220;2024-01-15T02:33:51;4.00;99.90
7658;DHT22;8462;53.156;8.220;2024-01-15T02:36:18;4.00;99.90
7658;DHT22;8462;53.156;8.220;2024-01-15T02:38:47;4.10;99.90
7658;DHT22;8462;53.156;8.220;2024-01-15T02:41:15;4.10;99.90
7658;DHT22;8462;53.156;8.220;2024-01-15T02:43:42;4.10;99.90
7658;DHT22;8462;53.156;8.220;2024-01-15T02:46:09;4.10;99.90
7658;DHT22;8462;53.156;8.220;2024-01-15T02:48:38;4.20;99.90
7658;DHT22;8462;53.156;8.220;2024-01-15T02:51:05;4.20;99.90
7658;DHT22;8462;53.156;8.220;2024-01-15T02:53:32;4.20;99.90
7658;DHT22;8462;53.156;8.220;2024-01-15T02:55:59;4.20;99.90
7658;DHT22;8462;53.156;8.220;2024-01-15T02:58:28;4.30;99.90
7658;DHT22;8462;53.156;8.220;2024-01-15T03:00:55;4.20;99.90
7658;DHT22;8462;53.156;8.220;2024-01-15T03:03:24;4.20;99.90
7658;DHT22;8462;53.156;8.220;2024-01-15T03:05:51;4.20;99.90
7658;DHT22;8462;53.156;8.220;2024-01-15T03:08:18;4.10;99.90
7658;DHT22;8462;53.156;8.220;2024-01-15T03:10:45;4.10;99.90
7658;DHT22;8462;53.156;8.220;2024-01-15T03:13:12;4.10;99.90
7658;DHT22;8462;53.156;8.220;2024-01-15T03:15:41;4.10;99.90
7658;DHT22;8462;53.156;8.220;2024-01-15T03:18:13;4.10;99.90
7658;DHT22;8462;53.156;8.220;2024-01-15T03:20:40;4.00;99.90
7658;DHT22;8462;53.156;8.220;2024-01-15T03:23:07;4.10;99.90
7658;DHT22;8462;53.156;8.220;2024-01-15T03:25:34;4.10;99.90
7658;DHT22;8462;53.156;8.220;2024-01-15T03:28:02;4.10;99.90
7658;DHT22;8462;53.156;8.220;2024-01-15T03:30:37;4.10;99.90
7658;DHT22;8462;53.156;8.220;2024-01-15T03:33:05;4.10;99.90
7658;DHT22;8462;53.156;8.220;2024-01-15T03:35:32;4.10;99.90
7658;DHT22;8462;53.156;8.220;2024-01-15T03:37:59;4.10;99.90
7658;DHT22;8462;53.156;8.220;2024-01-15T03:40:26;4.20;99.90
7658;DHT22;8462;53.156;8.220;2024-01-15T03:42:53;4.20;99.90
7658;DHT22;8462;53.156;8.220;2024-01-15T03:45:20;4.20;99.90
7658;DHT22;8462;53.156;8.220;2024-01-15T03:47:48;4.20;99.90
7658;DHT22;8462;53.156;8.220;2024-01-15T03:50:16;4.10;99.90
7658;DHT22;8462;53.156;8.220;2024-01-15T03:52:43;4.10;99.90
7658;DHT22;8462;53.156;8.220;2024-01-15T03:55:10;4.10;99.90
7658;DHT22;8462;53.156;8.220;2024-01-15T03:57:37;4.10;99.90
7658;DHT22;8462;53.156;8.220;2024-01-15T04:00:05;4.20;99.90
7658;DHT22;8462;53.156;8.220;2024-01-15T04:02:32;4.20;99.90
7658;DHT22;8462;53.156;8.220;2024-01-15T04:05:00;4.30;99.90
7658;DHT22;8462;53.156;8.220;2024-01-15T04:07:29;4.30;99.90
7658;DHT22;8462;53.156;8.220;2024-01-15T04:09:56;4.40;99.90
7658;DHT22;8462;53.156;8.220;2024-01-15T04:12:23;4.40;99.90
7658;DHT22;8462;53.156;8.220;2024-01-15T04:14:50;4.40;99.90
7658;DHT22;8462;53.156;8.220;2024-01-15T04:17:17;4.40;99.90
7658;DHT22;8462;53.156;8.220;2024-01-15T04:19:44;4.30;99.90
7658;DHT22;8462;53.156;8.220;2024-01-15T04:22:11;4.40;99.90
7658;DHT22;8462;53.156;8.220;2024-01-15T04:24:40;4.40;99.90
7658;DHT22;8462;53.156;8.220;2024-01-15T04:27:07;4.40;99.90
7658;DHT22;8462;53.156;8.220;2024-01-15T04:29:34;4.30;99.90
7658;DHT22;8462;53.156;8.220;2024-01-15T04:32:02;4.30;99.90
7658;DHT22;8462;53.156;8.220;2024-01-15T04:34:29;4.30;99.90
7658;DHT22;8462;53.156;8.220;2024-01-15T04:36:56;4.30;99.90
7658;DHT22;8462;53.156;8.220;2024-01-15T04:39:23;4.30;99.90
7658;DHT22;8462;53.156;8.220;2024-01-15T04:41:52;4.40;99.90
7658;DHT22;8462;53.156;8.220;2024-01-15T04:44:19;4.40;99.90
7658;DHT22;8462;53.156;8.220;2024-01-15T04:46:46;4.40;99.90
7658;DHT22;8462;53.156;8.220;2024-01-15T04:49:13;4.40;99.90
7658;DHT22;8462;53.156;8.220;2024-01-15T04:51:41;4.40;99.90
7658;DHT22;8462;53.156;8.220;2024-01-15T04:54:08;4.50;99.90
7658;DHT22;8462;53.156;8.220;2024-01-15T04:56:35;4.50;99.90
7658;DHT22;8462;53.156;8.220;2024-01-15T04:59:03;4.40;99.90
7658;DHT22;8462;53.156;8.220;2024-01-15T05:01:31;4.40;99.90
7658;DHT22;8462;53.156;8.220;2024-01-15T05:03:59;4.50;99.90
7658;DHT22;8462;53.156;8.220;2024-01-15T05:06:26;4.50;99.90
7658;DHT22;8462;53.156;8.220;2024-01-15T05:08:54;4.50;99.90
7658;DHT22;8462;53.156;8.220;2024-01-15T05:11:21;4.40;99.90
7658;DHT22;8462;53.156;8.220;2024-01-15T05:13:49;4.50;99.90
7658;DHT22;8462;53.156;8.220;2024-01-15T05:16:17;4.50;99.90
7658;DHT22;8462;53.156;8.220;2024-01-15T05:18:44;4.50;99.90
7658;DHT22;8462;53.156;8.220;2024-01-15T05:21:11;4.50;99.90
7658;DHT22;8462;53.156;8.220;2024-01-15T05:23:38;4.50;99.90
7658;DHT22;8462;53.156;8.220;2024-01-15T05:26:05;4.50;99.90
7658;DHT22;8462;53.156;8.220;2024-01-15T05:28:36;4.50;99.90
7658;DHT22;8462;53.156;8.220;2024-01-15T05:31:03;4.40;99.90
7658;DHT22;8462;53.156;8.220;2024-01-15T05:33:32;4.40;99.90
7658;DHT22;8462;53.156;8.220;2024-01-15T05:35:59;4.40;99.90
7658;DHT22;8462;53.156;8.220;2024-01-15T05:38:25;4.40;99.90
7658;DHT22;8462;53.156;8.220;2024-01-15T05:40:52;4.50;99.90
7658;DHT22;8462;53.156;8.220;2024-01-15T05:43:19;4.50;99.90
7658;DHT22;8462;53.156;8.220;2024-01-15T05:45:46;4.50;99.90
7658;DHT22;8462;53.156;8.220;2024-01-15T05:48:13;4.50;99.90
7658;DHT22;8462;53.156;8.220;2024-01-15T05:50:42;4.50;99.90
7658;DHT22;8462;53.156;8.220;2024-01-15T05:53:09;4.50;99.90
7658;DHT22;8462;53.156;8.220;2024-01-15T05:55:36;4.50;99.90
7658;DHT22;8462;53.156;8.220;2024-01-15T05:58:04;4.50;99.90
7658;DHT22;8462;53.156;8.220;2024-01-15T06:00:31;4.50;99.90
7658;DHT22;8462;53.156;8.220;2024-01-15T06:02:58;4.50;99.90
7658;DHT22;8462;53.156;8.220;2024-01-15T06:05:25;4.50;99.90
7658;DHT22;8462;53.156;8.220;2024-01-15T06:07:54;4.40;99.90
7658;DHT22;8462;53.156;8.220;2024-01-15T06:10:25;4.40;99.90
7658;DHT22;8462;53.156;8.220;2024-01-15T06:12:53;4.30;99.90
7658;DHT22;8462;53.156;8.220;2024-01-15T06:15:20;4.30;99.90
7658;DHT22;8462;53.156;8.220;2024-01-15T06:17:47;4.30;99.90
7658;DHT22;8462;53.156;8.220;2024-01-15T06:20:14;4.30;99.90
7658;DHT22;8462;53.156;8.220;2024-01-15T06:22:41;4.40;99.90
7658;DHT22;8462;53.156;8.220;2024-01-15T06:25:10;4.40;99.90
7658;DHT22;8462;53.156;8.220;2024-01-15T06:27:37;4.40;99.90
7658;DHT22;8462;53.156;8.220;2024-01-15T06:30:05;4.40;99.90
7658;DHT22;8462;53.156;8.220;2024-01-15T06:32:33;4.40;99.90
7658;DHT22;8462;53.156;8.220;2024-01-15T06:34:59;4.50;99.90
7658;DHT22;8462;53.156;8.220;2024-01-15T06:37:26;4.50;99.90
7658;DHT22;8462;53.156;8.220;2024-01-15T06:39:53;4.60;99.90
7658;DHT22;8462;53.156;8.220;2024-01-15T06:42:22;4.60;99.90
7658;DHT22;8462;53.156;8.220;2024-01-15T06:44:49;4.70;99.90
7658;DHT22;8462;53.156;8.220;2024-01-15T06:47:16;4.70;99.90
7658;DHT22;8462;53.156;8.220;2024-01-15T06:49:43;4.80;99.90
7658;DHT22;8462;53.156;8.220;2024-01-15T06:52:10;4.90;99.90
7658;DHT22;8462;53.156;8.220;2024-01-15T06:54:38;4.90;99.90
7658;DHT22;8462;53.156;8.220;2024-01-15T06:57:05;4.90;99.90
7658;DHT22;8462;53.156;8.220;2024-01-15T06:59:34;4.90;99.90
7658;DHT22;8462;53.156;8.220;2024-01-15T07:02:03;4.90;99.90
7658;DHT22;8462;53.156;8.220;2024-01-15T07:04:30;4.80;99.90
7658;DHT22;8462;53.156;8.220;2024-01-15T07:06:57;4.80;99.90
7658;DHT22;8462;53.156;8.220;2024-01-15T07:09:24;4.70;99.90
7658;DHT22;8462;53.156;8.220;2024-01-15T07:11:51;4.60;99.90
7658;DHT22;8462;53.156;8.220;2024-01-15T07:14:18;4.50;99.90
7658;DHT22;8462;53.156;8.220;2024-01-15T07:16:46;4.40;99.90
7658;DHT22;8462;53.156;8.220;2024-01-15T07:19:13;4.40;99.90
7658;DHT22;8462;53.156;8.220;2024-01-15T07:21:40;4.40;99.90
7658;DHT22;8462;53.156;8.220;2024-01-15T07:24:09;4.40;99.90
7658;DHT22;8462;53.156;8.220;2024-01-15T07:26:36;4.40;99.90
7658;DHT22;8462;53.156;8.220;2024-01-15T07:29:04;4.40;99.90
7658;DHT22;8462;53.156;8.220;2024-01-15T07:31:31;4.40;99.90
7658;DHT22;8462;53.156;8.220;2024-01-15T07:34:00;4.40;99.90
7658;DHT22;8462;53.156;8.220;2024-01-15T07:36:27;4.40;99.90
7658;DHT22;8462;53.156;8.220;2024-01-15T07:38:55;4.40;99.90
7658;DHT22;8462;53.156;8.220;2024-01-15T07:41:22;4.40;99.90
7658;DHT22;8462;53.156;8.220;2024-01-15T07:43:49;4.40;99.90
7658;DHT22;8462;53.156;8.220;2024-01-15T07:46:17;4.40;99.90
7658;DHT22;8462;53.156;8.220;2024-01-15T07:48:44;4.40;99.90
7658;DHT22;8462;53.156;8.220;2024-01-15T07:51:13;4.40;99.90
7658;DHT22;8462;53.156;8.220;2024-01-15T07:53:39;4.40;99.90
7658;DHT22;8462;53.156;8.220;2024-01-15T07:56:07;4.40;99.90
7658;DHT22;8462;53.156;8.220;2024-01-15T07:58:34;4.40;99.90
7658;DHT22;8462;53.156;8.220;2024-01-15T08:01:05;4.40;99.90
7658;DHT22;8462;53.156;8.220;2024-01-15T08:03:34;4.40;99.90
7658;DHT22;8462;53.156;8.220;2024-01-15T08:06:02;4.40;99.90
7658;DHT22;8462;53.156;8.220;2024-01-15T08:08:32;4.30;99.90
7658;DHT22;8462;53.156;8.220;2024-01-15T08:11:00;4.20;99.90
7658;DHT22;8462;53.156;8.220;2024-01-15T08:13:28;4.20;99.90
7658;DHT22;8462;53.156;8.220;2024-01-15T08:15:56;4.30;99.90
7658;DHT22;8462;53.156;8.220;2024-01-15T08:18:25;4.30;99.90
7658;DHT22;8462;53.156;8.220;2024-01-15T08:20:55;4.30;99.90
7658;DHT22;8462;53.156;8.220;2024-01-15T08:23:23;4.40;99.90
7658;DHT22;8462;53.156;8.220;2024-01-15T08:25:52;4.40;99.90
7658;DHT22;8462;53.156;8.220;2024-01-15T08:28:19;4.40;99.90
7658;DHT22;8462;53.156;8.220;2024-01-15T08:30:47;4.50;99.90
7658;DHT22;8462;53.156;8.220;2024-01-15T08:33:15;4.50;99.90
7658;DHT22;8462;53.156;8.220;2024-01-15T08:35:42;4.50;99.90
7658;DHT22;8462;53.156;8.220;2024-01-15T08:38:09;4.50;99.90
7658;DHT22;8462;53.156;8.220;2024-01-15T08:40:36;4.50;99.90
7658;DHT22;8462;53.156;8.220;2024-01-15T08:43:05;4.50;99.90
7658;DHT22;8462;53.156;8.220;2024-01-15T08:45:41;4.60;99.90
7658;DHT22;8462;53.156;8.220;2024-01-15T08:48:08;4.60;99.90
7658;DHT22;8462;53.156;8.220;2024-01-15T08:50:35;4.60;99.90
7658;DHT22;8462;53.156;8.220;2024-01-15T08:53:02;4.70;99.90
7658;DHT22;8462;53.156;8.220;2024-01-15T08:55:29;4.70;99.90
7658;DHT22;8462;53.156;8.220;2024-01-15T08:57:56;4.80;99.90
7658;DHT22;8462;53.156;8.220;2024-01-15T09:00:25;4.80;99.90
7658;DHT22;8462;53.156;8.220;2024-01-15T09:02:52;4.80;99.90
7658;DHT22;8462;53.156;8.220;2024-01-15T09:05:19;4.90;99.90
7658;DHT22;8462;53.156;8.220;2024-01-15T09:07:46;4.90;99.90
7658;DHT22;8462;53.156;8.220;2024-01-15T09:10:13;4.90;99.90
7658;DHT22;8462;53.156;8.220;2024-01-15T09:12:41;4.90;99.90
7658;DHT22;8462;53.156;8.220;2024-01-15T09:15:09;4.80;99.90
7658;DHT22;8462;53.156;8.220;2024-01-15T09:17:38;4.80;99.90
7658;DHT22;8462;53.156;8.220;2024-01-15T09:20:08;4.70;99.90
7658;DHT22;8462;53.156;8.220;2024-01-15T09:22:36;4.60;99.90
7658;DHT22;8462;53.156;8.220;2024-01-15T09:25:06;4.70;99.90
7658;DHT22;8462;53.156;8.220;2024-01-15T09:27:35;4.60;99.90
7658;DHT22;8462;53.156;8.220;2024-01-15T09:30:03;4.60;99.90
7658;DHT22;8462;53.156;8.220;2024-01-15T09:32:32;4.60;99.90
7658;DHT22;8462;53.156;8.220;2024-01-15T09:35:00;4.70;99.90
7658;DHT22;8462;53.156;8.220;2024-01-15T09:37:27;4.70;99.90
7658;DHT22;8462;53.156;8.220;2024-01-15T09:39:54;4.70;99.90
7658;DHT22;8462;53.156;8.220;2024-01-15T09:42:23;4.70;99.90
7658;DHT22;8462;53.156;8.220;2024-01-15T09:44:52;4.70;99.90
7658;DHT22;8462;53.156;8.220;2024-01-15T09:47:19;4.70;99.90
7658;DHT22;8462;53.156;8.220;2024-01-15T09:49:48;4.70;99.90
7658;DHT22;8462;53.156;8.220;2024-01-15T09:52:19;4.80;99.90
7658;DHT22;8462;53.156;8.220;2024-01-15T09:54:46;4.80;99.90
7658;DHT22;8462;53.156;8.220;2024-01-15T09:57:13;4.80;99.90
7658;DHT22;8462;53.156;8.220;2024-01-15T09:59:42;4.80;99.90
7658;DHT22;8462;53.156;8.220;2024-01-15T10:02:12;4.80;99.90
7658;DHT22;8462;53.156;8.220;2024-01-15T10:04:44;4.80;99.90
7658;DHT22;8462;53.156;8.220;2024-01-15T10:07:15;4.70;99.90
7658;DHT22;8462;53.156;8.220;2024-01-15T10:09:44;4.50;99.90
7658;DHT22;8462;53.156;8.220;2024-01-15T10:12:12;4.50;99.90
7658;DHT22;8462;53.156;8.220;2024-01-15T10:14:41;4.40;99.90
7658;DHT22;8462;53.156;8.220;2024-01-15T10:17:12;4.40;99.90
7658;DHT22;8462;53.156;8.220;2024-01-15T10:19:41;4.40;99.90
7658;DHT22;8462;53.156;8.220;2024-01-15T10:22:08;4.30;99.90
7658;DHT22;8462;53.156;8.220;2024-01-15T10:24:36;4.30;99.90
7658;DHT22;8462;53.156;8.220;2024-01-15T10:27:09;4.30;99.90
7658;DHT22;8462;53.156;8.220;2024-01-15T10:29:36;4.30;99.90
7658;DHT22;8462;53.156;8.220;2024-01-15T10:32:05;4.40;99.90
7658;DHT22;8462;53.156;8.220;2024-01-15T10:34:33;4.50;99.90
7658;DHT22;8462;53.156;8.220;2024-01-15T10:37:02;4.60;99.90
7658;DHT22;8462;53.156;8.220;2024-01-15T10:39:30;4.60;99.90
7658;DHT22;8462;53.156;8.220;2024-01-15T10:41:57;4.60;99.90
7658;DHT22;8462;53.156;8.220;2024-01-15T10:44:26;4.70;99.90
7658;DHT22;8462;53.156;8.220;2024-01-15T10:46:53;4.70;99.90
7658;DHT22;8462;53.156;8.220;2024-01-15T10:49:24;4.70;99.90
7658;DHT22;8462;53.156;8.220;2024-01-15T10:51:54;4.70;99.90
7658;DHT22;8462;53.156;8.220;2024-01-15T10:54:21;4.70;99.90
7658;DHT22;8462;53.156;8.220;2024-01-15T10:56:50;4.80;99.90
7658;DHT22;8462;53.156;8.220;2024-01-15T10:59:20;4.80;99.90
7658;DHT22;8462;53.156;8.220;2024-01-15T11:01:49;4.90;99.90
7658;DHT22;8462;53.156;8.220;2024-01-15T11:04:20;5.00;99.90
7658;DHT22;8462;53.156;8.220;2024-01-15T11:06:52;5.10;99.90
7658;DHT22;8462;53.156;8.220;2024-01-15T11:09:21;5.10;99.90
7658;DHT22;8462;53.156;8.220;2024-01-15T11:11:53;5.20;99.90
7658;DHT22;8462;53.156;8.220;2024-01-15T11:14:34;5.30;99.90
7658;DHT22;8462;53.156;8.220;2024-01-15T11:17:03;5.40;99.90
7658;DHT22;8462;53.156;8.220;2024-01-15T11:19:36;5.50;99.90
7658;DHT22;8462;53.156;8.220;2024-01-15T11:22:07;5.50;99.90
7658;DHT22;8462;53.156;8.220;2024-01-15T11:24:36;5.50;99.90
7658;DHT22;8462;53.156;8.220;2024-01-15T11:27:04;5.40;99.90
7658;DHT22;8462;53.156;8.220;2024-01-15T11:29:33;5.40;99.90
7658;DHT22;8462;53.156;8.220;2024-01-15T11:32:05;5.30;99.90
7658;DHT22;8462;53.156;8.220;2024-01-15T11:34:58;5.30;99.90
7658;DHT22;8462;53.156;8.220;2024-01-15T11:37:28;5.10;99.90
7658;DHT22;8462;53.156;8.220;2024-01-15T11:40:03;5.00;99.90
7658;DHT22;8462;53.156;8.220;2024-01-15T11:42:30;5.00;99.90
7658;DHT22;8462;53.156;8.220;2024-01-15T11:45:02;4.90;99.90
7658;DHT22;8462;53.156;8.220;2024-01-15T11:48:10;4.80;99.90
7658;DHT22;8462;53.156;8.220;2024-01-15T11:50:40;4.80;99.90
7658;DHT22;8462;53.156;8.220;2024-01-15T11:53:25;4.90;99.90
7658;DHT22;8462;53.156;8.220;2024-01-15T11:55:58;4.90;99.90
7658;DHT22;8462;53.156;8.220;2024-01-15T11:58:26;5.00;99.90
7658;DHT22;8462;53.156;8.220;2024-01-15T12:00:55;5.00;99.90
7658;DHT22;8462;53.156;8.220;2024-01-15T12:03:24;5.00;99.90
7658;DHT22;8462;53.156;8.220;2024-01-15T12:05:52;5.10;99.90
7658;DHT22;8462;53.156;8.220;2024-01-15T12:08:22;5.20;99.90
7658;DHT22;8462;53.156;8.220;2024-01-15T12:10:50;5.30;99.90
7658;DHT22;8462;53.156;8.220;2024-01-15T12:13:19;5.40;99.90
7658;DHT22;8462;53.156;8.220;2024-01-15T12:15:48;5.50;99.90
7658;DHT22;8462;53.156;8.220;2024-01-15T12:18:16;5.60;99.90
7658;DHT22;8462;53.156;8.220;2024-01-15T12:20:45;5.50;99.90
7658;DHT22;8462;53.156;8.220;2024-01-15T12:23:13;5.50;99.90
7658;DHT22;8462;53.156;8.220;2024-01-15T12:25:41;5.50;99.90
7658;DHT22;8462;53.156;8.220;2024-01-15T12:28:11;5.50;99.90
7658;DHT22;8462;53.156;8.220;2024-01-15T12:30:39;5.60;99.90
7658;DHT22;8462;53.156;8.220;2024-01-15T12:33:07;5.60;99.90
7658;DHT22;8462;53.156;8.220;2024-01-15T12:35:35;5.60;99.90
7658;DHT22;8462;53.156;8.220;2024-01-15T12:38:04;5.70;99.90
7658;DHT22;8462;53.156;8.220;2024-01-15T12:40:33;5.70;99.90
7658;DHT22;8462;53.156;8.220;2024-01-15T12:43:01;5.70;99.90
7658;DHT22;8462;53.156;8.220;2024-01-15T12:45:28;5.70;99.90
7658;DHT22;8462;53.156;8.220;2024-01-15T12:47:55;5.70;99.90
7658;DHT22;8462;53.156;8.220;2024-01-15T12:50:24;5.80;99.90
7658;DHT22;8462;53.156;8.220;2024-01-15T12:52:53;5.80;99.90
7658;DHT22;8462;53.156;8.220;2024-01-15T12:55:22;5.80;99.90
7658;DHT22;8462;53.156;8.220;2024-01-15T12:57:50;5.80;99.90
7658;DHT22;8462;53.156;8.220;2024-01-15T13:00:21;5.70;99.90
7658;DHT22;8462;53.156;8.220;2024-01-15T13:02:48;5.50;99.90
7658;DHT22;8462;53.156;8.220;2024-01-15T13:05:16;5.40;99.90
7658;DHT22;8462;53.156;8.220;2024-01-15T13:07:43;5.40;99.90
7658;DHT22;8462;53.156;8.220;2024-01-15T13:10:11;5.50;99.90
7658;DHT22;8462;53.156;8.220;2024-01-15T13:12:41;5.70;99.90
7658;DHT22;8462;53.156;8.220;2024-01-15T13:15:09;5.90;99.90
7658;DHT22;8462;53.156;8.220;2024-01-15T13:17:37;5.90;99.90
7658;DHT22;8462;53.156;8.220;2024-01-15T13:20:07;5.90;99.90
7658;DHT22;8462;53.156;8.220;2024-01-15T13:22:37;5.80;99.90
7658;DHT22;8462;53.156;8.220;2024-01-15T13:25:06;5.70;99.90
7658;DHT22;8462;53.156;8.220;2024-01-15T13:27:34;5.50;99.90
7658;DHT22;8462;53.156;8.220;2024-01-15T13:30:05;5.30;99.90
7658;DHT22;8462;53.156;8.220;2024-01-15T13:32:33;5.20;99.90
7658;DHT22;8462;53.156;8.220;2024-01-15T13:35:02;5.10;99.90
7658;DHT22;8462;53.156;8.220;2024-01-15T13:37:31;5.10;99.90
7658;DHT22;8462;53.156;8.220;2024-01-15T13:39:59;4.90;99.90
7658;DHT22;8462;53.156;8.220;2024-01-15T13:42:26;4.90;99.90
7658;DHT22;8462;53.156;8.220;2024-01-15T13:44:54;4.80;99.90
7658;DHT22;8462;53.156;8.220;2024-01-15T13:47:23;4.80;99.90
7658;DHT22;8462;53.156;8.220;2024-01-15T13:49:51;4.80;99.90
7658;DHT22;8462;53.156;8.220;2024-01-15T13:52:19;4.80;99.90
7658;DHT22;8462;53.156;8.220;2024-01-15T13:54:47;4.80;99.90
7658;DHT22;8462;53.156;8.220;2024-01-15T13:57:14;4.80;99.90
7658;DHT22;8462;53.156;8.220;2024-01-15T13:59:43;4.80;99.90
7658;DHT22;8462;53.156;8.220;2024-01-15T14:02:11;4.80;99.90
7658;DHT22;8462;53.156;8.220;2024-01-15T14:04:39;4.80;99.90
7658;DHT22;8462;53.156;8.220;2024-01-15T14:07:08;4.80;99.90
7658;DHT22;8462;53.156;8.220;2024-01-15T14:09:35;4.90;99.90
7658;DHT22;8462;53.156;8.220;2024-01-15T14:12:04;4.80;99.90
7658;DHT22;8462;53.156;8.220;2024-01-15T14:14:33;4.90;99.90
7658;DHT22;8462;53.156;8.220;2024-01-15T14:17:00;4.90;99.90
7658;DHT22;8462;53.156;8.220;2024-01-15T14:19:27;4.80;99.90
7658;DHT22;8462;53.156;8.220;2024-01-15T14:21:56;4.80;99.90
7658;DHT22;8462;53.156;8.220;2024-01-15T14:24:24;4.80;99.90
7658;DHT22;8462;53.156;8.220;2024-01-15T14:26:51;4.90;99.90
7658;DHT22;8462;53.156;8.220;2024-01-15T14:29:19;4.90;99.90
7658;DHT22;8462;53.156;8.220;2024-01-15T14:31:48;4.90;99.90
7658;DHT22;8462;53.156;8.220;2024-01-15T14:34:15;4.90;99.90
7658;DHT22;8462;53.156;8.220;2024-01-15T14:36:45;5.10;99.90
7658;DHT22;8462;53.156;8.220;2024-01-15T14:39:15;5.10;99.90
7658;DHT22;8462;53.156;8.220;2024-01-15T14:41:44;5.10;99.90
7658;DHT22;8462;53.156;8.220;2024-01-15T14:44:12;5.10;99.90
7658;DHT22;8462;53.156;8.220;2024-01-15T14:46:39;5.10;99.90
7658;DHT22;8462;53.156;8.220;2024-01-15T14:49:08;5.00;99.90
7658;DHT22;8462;53.156;8.220;2024-01-15T14:51:36;5.00;99.90
7658;DHT22;8462;53.156;8.220;2024-01-15T14:54:03;4.90;99.90
7658;DHT22;8462;53.156;8.220;2024-01-15T14:56:31;4.90;99.90
7658;DHT22;8462;53.156;8.220;2024-01-15T14:58:59;4.90;99.90
7658;DHT22;8462;53.156;8.220;2024-01-15T15:01:27;4.80;99.90
7658;DHT22;8462;53.156;8.220;2024-01-15T15:03:55;4.80;99.90
7658;DHT22;8462;53.156;8.220;2024-01-15T15:06:23;4.70;99.90
7658;DHT22;8462;53.156;8.220;2024-01-15T15:08:54;4.70;99.90
7658;DHT22;8462;53.156;8.220;2024-01-15T15:11:21;4.70;99.90
7658;DHT22;8462;53.156;8.220;2024-01-15T15:13:51;4.70;99.90
7658;DHT22;8462;53.156;8.220;2024-01-15T15:16:20;4.70;99.90
7658;DHT22;8462;53.156;8.220;2024-01-15T15:18:48;4.70;99.90
7658;DHT22;8462;53.156;8.220;2024-01-15T15:21:17;4.70;99.90
7658;DHT22;8462;53.156;8.220;2024-01-15T15:23:44;4.70;99.90
7658;DHT22;8462;53.156;8.220;2024-01-15T15:26:13;4.70;99.90
7658;DHT22;8462;53.156;8.220;2024-01-15T15:28:42;4.60;99.90
7658;DHT22;8462;53.156;8.220;2024-01-15T15:31:12;4.60;99.90
7658;DHT22;8462;53.156;8.220;2024-01-15T15:33:40;4.60;99.90
7658;DHT22;8462;53.156;8.220;2024-01-15T15:36:07;4.50;99.90
7658;DHT22;8462;53.156;8.220;2024-01-15T15:38:35;4.50;99.90
7658;DHT22;8462;53.156;8.220;2024-01-15T15:41:02;4.50;99.90
7658;DHT22;8462;53.156;8.220;2024-01-15T15:43:29;4.50;99.90
7658;DHT22;8462;53.156;8.220;2024-01-15T15:45:57;4.40;99.90
7658;DHT22;8462;53.156;8.220;2024-01-15T15:48:25;4.40;99.90
7658;DHT22;8462;53.156;8.220;2024-01-15T15:50:54;4.40;99.90
7658;DHT22;8462;53.156;8.220;2024-01-15T15:53:22;4.40;99.90
7658;DHT22;8462;53.156;8.220;2024-01-15T15:55:50;4.50;99.90
7658;DHT22;8462;53.156;8.220;2024-01-15T15:58:17;4.50;99.90
7658;DHT22;8462;53.156;8.220;2024-01-15T16:00:45;4.50;99.90
7658;DHT22;8462;53.156;8.220;2024-01-15T16:03:12;4.50;99.90
7658;DHT22;8462;53.156;8.220;2024-01-15T16:05:41;4.50;99.90
7658;DHT22;8462;53.156;8.220;2024-01-15T16:08:08;4.50;99.90
7658;DHT22;8462;53.156;8.220;2024-01-15T16:10:36;4.50;99.90
7658;DHT22;8462;53.156;8.220;2024-01-15T16:13:03;4.50;99.90
7658;DHT22;8462;53.156;8.220;2024-01-15T16:15:32;4.50;99.90
7658;DHT22;8462;53.156;8.220;2024-01-15T16:18:00;4.40;99.90
7658;DHT22;8462;53.156;8.220;2024-01-15T16:20:27;4.40;99.90
7658;DHT22;8462;53.156;8.220;2024-01-15T16:22:56;4.30;99.90